createdAt,value
2019-02-07T00:01:34.585Z,-4.10
2019-02-07T00:06:35.687Z,-4.00
2019-02-07T00:11:37.083Z,-4.00
2019-02-07T00:16:39.867Z,-3.90
2019-02-07T00:21:41.008Z,-3.90
2019-02-07T00:26:42.107Z,-3.90
2019-02-07T00:31:43.411Z,-3.90
2019-02-07T00:36:44.500Z,-3.90
2019-02-07T00:41:45.716Z,-3.90
2019-02-07T00:46:46.929Z,-3.90
2019-02-07T00:51:48.240Z,-3.80
2019-02-07T00:56:49.669Z,-3.70
2019-02-07T01:01:51.090Z,-3.70
2019-02-07T01:06:52.287Z,-3.80
2019-02-07T01:11:53.475Z,-4.00
2019-02-07T01:16:54.566Z,-4.00
2019-02-07T01:21:55.767Z,-4.00
2019-02-07T01:26:56.920Z,-4.10
2019-02-07T01:31:58.010Z,-4.20
2019-02-07T01:36:59.623Z,-4.30
2019-02-07T01:42:00.818Z,-4.40
2019-02-07T01:47:02.285Z,-4.50
2019-02-07T01:52:03.804Z,-4.40
2019-02-07T01:57:04.903Z,-4.40
2019-02-07T02:02:06.095Z,-4.50
2019-02-07T02:07:07.289Z,-4.60
2019-02-07T02:12:08.583Z,-4.60
2019-02-07T02:17:10.083Z,-4.60
2019-02-07T02:22:11.407Z,-4.70
2019-02-07T02:27:12.532Z,-4.80
2019-02-07T02:32:13.724Z,-4.90
2019-02-07T02:37:14.927Z,-5.10
2019-02-07T02:42:16.026Z,-5.10
2019-02-07T02:47:17.352Z,-5.00
2019-02-07T02:52:18.479Z,-4.90
2019-02-07T02:57:19.683Z,-4.80
2019-02-07T03:02:22.787Z,-4.80
2019-02-07T03:07:26.010Z,-4.80
2019-02-07T03:12:32.107Z,-4.80
2019-02-07T03:17:35.220Z,-4.70
2019-02-07T03:22:50.373Z,-4.70
2019-02-07T03:28:02.611Z,-4.70
2019-02-07T03:33:05.976Z,-4.80
2019-02-07T03:38:25.586Z,-4.80
2019-02-07T03:43:45.268Z,-4.70
2019-02-07T03:48:48.310Z,-4.80
2019-02-07T03:54:07.930Z,-4.90
2019-02-07T03:59:13.712Z,-4.90
2019-02-07T04:04:25.798Z,-4.80
2019-02-07T04:09:40.759Z,-4.80
2019-02-07T04:14:46.506Z,-4.90
2019-02-07T04:20:06.200Z,-4.90
2019-02-07T04:25:09.298Z,-4.90
2019-02-07T04:30:12.596Z,-4.70
2019-02-07T04:35:33.705Z,-4.50
2019-02-07T04:40:40.179Z,-4.50
2019-02-07T04:45:52.127Z,-4.60
2019-02-07T04:50:55.176Z,-4.60
2019-02-07T04:56:13.710Z,-4.50
2019-02-07T05:01:28.717Z,-4.40
2019-02-07T05:06:48.319Z,-4.40
2019-02-07T05:11:51.327Z,-4.30
2019-02-07T05:16:54.342Z,-4.20
2019-02-07T05:22:13.928Z,-4.00
2019-02-07T05:27:17.017Z,-3.90
2019-02-07T05:32:36.907Z,-3.80
2019-02-07T05:37:42.913Z,-3.60
2019-02-07T05:42:49.294Z,-3.50
2019-02-07T05:48:01.414Z,-3.50
2019-02-07T05:53:07.695Z,-3.40
2019-02-07T05:58:10.771Z,-3.30
2019-02-07T06:03:19.829Z,-3.20
2019-02-07T06:08:25.792Z,-3.20
2019-02-07T06:13:40.899Z,-3.30
2019-02-07T06:18:56.043Z,-3.40
2019-02-07T06:23:59.185Z,-3.50
2019-02-07T06:29:08.231Z,-3.60
2019-02-07T06:34:28.996Z,-3.70
2019-02-07T06:39:37.226Z,-3.80
2019-02-07T06:44:43.248Z,-3.70
2019-02-07T06:49:46.271Z,-3.60
2019-02-07T06:54:57.318Z,-3.40
2019-02-07T07:00:00.464Z,-3.30
2019-02-07T07:05:20.648Z,-3.20
2019-02-07T07:10:32.617Z,-3.20
2019-02-07T07:15:40.262Z,-2.90
2019-02-07T07:20:52.143Z,-2.80
2019-02-07T07:25:55.157Z,-2.40
2019-02-07T07:31:00.973Z,-2.40
2019-02-07T07:36:12.933Z,-2.20
2019-02-07T07:41:25.535Z,-1.10
2019-02-07T07:46:43.995Z,-1.60
2019-02-07T07:51:49.940Z,-1.40
2019-02-07T07:56:52.940Z,-1.20
2019-02-07T08:02:12.854Z,-0.90
2019-02-07T08:07:16.455Z,-0.60
2019-02-07T08:12:22.884Z,-0.40
2019-02-07T08:17:31.948Z,-0.10
2019-02-07T08:22:46.916Z,0.30
2019-02-07T08:28:06.506Z,0.40
2019-02-07T08:33:18.714Z,0.70
2019-02-07T08:38:21.734Z,0.80
2019-02-07T08:43:30.525Z,1.10
2019-02-07T08:48:37.128Z,1.40
2019-02-07T08:53:59.896Z,1.50
2019-02-07T08:59:18.263Z,1.50
2019-02-07T09:04:30.301Z,1.90
2019-02-07T09:09:48.343Z,1.90
2019-02-07T09:15:00.304Z,2.10
2019-02-07T09:20:03.621Z,2.30
2019-02-07T09:25:10.130Z,2.40
2019-02-07T09:30:28.713Z,2.70
2019-02-07T09:35:31.718Z,3.00
2019-02-07T09:40:34.715Z,3.80
2019-02-07T09:45:54.549Z,3.30
2019-02-07T09:51:06.704Z,3.40
2019-02-07T09:56:18.731Z,3.80
2019-02-07T10:01:24.719Z,4.20
2019-02-07T10:06:36.739Z,4.20
2019-02-07T10:11:55.039Z,4.10
2019-02-07T10:17:01.188Z,3.70
2019-02-07T10:22:07.036Z,3.30
2019-02-07T10:27:15.987Z,3.20
2019-02-07T10:32:24.807Z,3.70
2019-02-07T10:37:28.111Z,3.50
2019-02-07T10:42:43.581Z,3.40
2019-02-07T10:48:02.040Z,3.10
2019-02-07T10:53:20.609Z,3.20
2019-02-07T10:58:32.560Z,3.20
2019-02-07T11:03:44.529Z,3.20
2019-02-07T11:08:56.852Z,3.30
2019-02-07T11:14:12.107Z,2.90
2019-02-07T11:19:31.934Z,2.90
2019-02-07T11:24:43.864Z,3.10
2019-02-07T11:29:46.869Z,3.00
2019-02-07T11:34:49.923Z,3.10
2019-02-07T11:39:52.922Z,3.10
2019-02-07T11:44:58.921Z,2.90
2019-02-07T11:50:14.328Z,2.80
2019-02-07T11:55:17.460Z,2.70
2019-02-07T12:00:20.856Z,2.60
2019-02-07T12:05:39.079Z,2.60
2019-02-07T12:10:42.188Z,2.60
2019-02-07T12:15:48.174Z,2.50
2019-02-07T12:21:06.420Z,2.40
2019-02-07T12:26:09.433Z,2.50
2019-02-07T12:31:22.039Z,2.60
2019-02-07T12:36:27.939Z,2.50
2019-02-07T12:41:48.115Z,3.00
2019-02-07T12:46:51.136Z,2.90
2019-02-07T12:51:54.301Z,3.20
2019-02-07T12:57:03.684Z,3.30
2019-02-07T13:02:13.194Z,3.60
2019-02-07T13:07:19.271Z,3.30
2019-02-07T13:12:25.298Z,3.90
2019-02-07T13:17:31.669Z,3.70
2019-02-07T13:22:37.741Z,3.90
2019-02-07T13:27:44.365Z,4.00
2019-02-07T13:32:47.560Z,4.20
2019-02-07T13:37:50.681Z,4.50
2019-02-07T13:43:02.356Z,3.50
2019-02-07T13:48:06.011Z,4.70
2019-02-07T13:53:09.316Z,4.80
2019-02-07T13:58:32.574Z,4.90
2019-02-07T14:03:44.448Z,4.70
2019-02-07T14:08:47.564Z,4.60
2019-02-07T14:13:53.425Z,4.60
2019-02-07T14:18:56.765Z,6.10
2019-02-07T14:23:59.883Z,5.40
2019-02-07T14:29:19.471Z,6.00
2019-02-07T14:34:28.330Z,6.70
2019-02-07T14:39:34.928Z,7.20
2019-02-07T14:44:38.025Z,7.50
2019-02-07T14:49:39.235Z,7.60
2019-02-07T14:54:40.362Z,7.90
2019-02-07T14:59:41.560Z,8.20
2019-02-07T15:04:42.852Z,8.50
2019-02-07T15:09:43.992Z,8.80
2019-02-07T15:14:45.089Z,8.70
2019-02-07T15:19:46.605Z,8.50
2019-02-07T15:24:47.732Z,8.10
2019-02-07T15:29:48.860Z,7.90
2019-02-07T15:34:50.055Z,7.70
2019-02-07T15:39:51.250Z,7.50
2019-02-07T15:44:52.488Z,7.20
2019-02-07T15:49:53.897Z,7.10
2019-02-07T15:54:55.141Z,6.90
2019-02-07T15:59:56.247Z,6.70
2019-02-07T16:04:57.575Z,6.50
2019-02-07T16:09:58.908Z,8.90
2019-02-07T16:15:00.519Z,6.10
2019-02-07T16:20:04.617Z,5.90
2019-02-07T16:25:12.097Z,6.20
2019-02-07T16:30:15.212Z,5.70
2019-02-07T16:35:18.772Z,5.90
2019-02-07T16:40:21.920Z,5.50
2019-02-07T16:45:25.062Z,5.40
2019-02-07T16:50:28.703Z,5.40
2019-02-07T16:55:30.045Z,5.40
2019-02-07T17:00:33.328Z,5.40
2019-02-07T17:05:34.649Z,5.30
2019-02-07T17:10:40.025Z,5.30
2019-02-07T17:15:41.239Z,5.50
2019-02-07T17:20:42.938Z,5.10
2019-02-07T17:25:44.397Z,5.10
2019-02-07T17:30:46.016Z,5.00
2019-02-07T17:35:49.894Z,5.90
2019-02-07T17:40:50.532Z,4.90
2019-02-07T17:45:51.881Z,4.80
2019-02-07T17:50:53.206Z,4.90
2019-02-07T17:55:54.355Z,5.00
2019-02-07T18:00:59.986Z,5.30
2019-02-07T18:06:01.542Z,5.20
2019-02-07T18:11:04.071Z,6.10
2019-02-07T18:16:05.500Z,5.30
2019-02-07T18:21:06.584Z,5.60
2019-02-07T18:26:07.913Z,6.00
2019-02-07T18:31:09.316Z,6.20
2019-02-07T18:36:10.908Z,6.10
2019-02-07T18:41:12.108Z,6.00
2019-02-07T18:46:13.219Z,6.20
2019-02-07T18:51:14.355Z,6.20
2019-02-07T18:56:15.480Z,6.30
2019-02-07T19:01:16.652Z,6.30
2019-02-07T19:06:18.163Z,6.10
2019-02-07T19:11:19.334Z,6.10
2019-02-07T19:16:20.663Z,6.00
2019-02-07T19:21:21.907Z,6.10
2019-02-07T19:26:23.120Z,6.10
2019-02-07T19:31:24.284Z,5.80
2019-02-07T19:36:25.600Z,5.50
2019-02-07T19:41:26.777Z,5.20
2019-02-07T19:46:27.947Z,5.10
2019-02-07T19:51:29.743Z,5.20
2019-02-07T19:56:31.323Z,5.10
2019-02-07T20:01:32.593Z,4.80
2019-02-07T20:06:33.919Z,4.70
2019-02-07T20:11:35.268Z,5.30
2019-02-07T20:16:36.793Z,4.60
2019-02-07T20:21:38.377Z,4.60
2019-02-07T20:26:39.485Z,4.50
2019-02-07T20:31:40.905Z,4.70
2019-02-07T20:36:44.872Z,4.50
2019-02-07T20:41:46.174Z,4.60
2019-02-07T20:46:47.596Z,5.60
2019-02-07T20:51:48.732Z,5.00
2019-02-07T20:56:49.963Z,5.00
2019-02-07T21:01:51.336Z,5.20
2019-02-07T21:06:52.577Z,5.40
2019-02-07T21:11:53.726Z,5.30
2019-02-07T21:16:54.842Z,5.80
2019-02-07T21:21:56.050Z,5.00
2019-02-07T21:26:57.171Z,5.80
2019-02-07T21:31:58.388Z,5.00
2019-02-07T21:36:59.534Z,4.90
2019-02-07T21:42:00.832Z,5.80
2019-02-07T21:47:01.951Z,4.80
2019-02-07T21:52:03.235Z,4.90
2019-02-07T21:57:04.587Z,4.90
2019-02-07T22:02:05.877Z,5.00
2019-02-07T22:07:06.987Z,5.20
2019-02-07T22:12:08.104Z,5.40
2019-02-07T22:17:09.434Z,5.40
2019-02-07T22:22:10.712Z,6.60
2019-02-07T22:27:12.211Z,5.30
2019-02-07T22:32:13.295Z,5.50
2019-02-07T22:37:14.383Z,5.10
2019-02-07T22:42:15.814Z,5.20
2019-02-07T22:47:17.014Z,4.80
2019-02-07T22:52:18.136Z,4.70
2019-02-07T22:57:19.773Z,4.60
2019-02-07T23:02:21.000Z,4.70
2019-02-07T23:07:22.205Z,5.20
2019-02-07T23:12:23.512Z,5.40
2019-02-07T23:17:24.614Z,5.40
2019-02-07T23:22:26.320Z,5.60
2019-02-07T23:27:27.531Z,5.50
2019-02-07T23:32:28.708Z,6.30
2019-02-07T23:37:29.912Z,6.50
2019-02-07T23:42:31.003Z,5.50
2019-02-07T23:47:32.299Z,5.60
2019-02-07T23:52:33.442Z,5.70
2019-02-07T23:57:34.531Z,5.80
